sensor_id;sensor_type;location;lat;lon;timestamp;P1;durP1;ratioP1;P2;durP2;ratioP2
56075;SDS011;41951;49.022;12.066;2023-05-10T00:01:33;6.03;;;2.97;;
56075;SDS011;41951;49.022;12.066;2023-05-10T00:03:59;7.13;;;2.97;;
56075;SDS011;41951;49.022;12.066;2023-05-10T00:06:24;3.80;;;2.50;;
56075;SDS011;41951;49.022;12.066;2023-05-10T00:08:50;4.57;;;2.97;;
56075;SDS011;41951;49.022;12.066;2023-05-10T00:11:16;5.95;;;2.80;;
56075;SDS011;41951;49.022;12.066;2023-05-10T00:13:42;4.50;;;3.08;;
56075;SDS011;41951;49.022;12.066;2023-05-10T00:16:07;4.90;;;2.85;;
56075;SDS011;41951;49.022;12.066;2023-05-10T00:18:33;3.63;;;2.40;;
56075;SDS011;41951;49.022;12.066;2023-05-10T00:20:58;4.15;;;3.00;;
56075;SDS011;41951;49.022;12.066;2023-05-10T00:23:24;7.07;;;3.38;;
56075;SDS011;41951;49.022;12.066;2023-05-10T00:25:50;5.68;;;3.10;;
56075;SDS011;41951;49.022;12.066;2023-05-10T00:28:15;5.95;;;3.38;;
56075;SDS011;41951;49.022;12.066;2023-05-10T00:30:41;4.10;;;3.00;;
56075;SDS011;41951;49.022;12.066;2023-05-10T00:33:06;7.65;;;2.92;;
56075;SDS011;41951;49.022;12.066;2023-05-10T00:35:32;4.80;;;2.95;;
56075;SDS011;41951;49.022;12.066;2023-05-10T00:37:57;5.47;;;3.20;;
56075;SDS011;41951;49.022;12.066;2023-05-10T00:40:23;5.70;;;2.72;;
56075;SDS011;41951;49.022;12.066;2023-05-10T00:42:49;5.45;;;3.08;;
56075;SDS011;41951;49.022;12.066;2023-05-10T00:45:14;6.72;;;2.95;;
56075;SDS011;41951;49.022;12.066;2023-05-10T00:47:40;4.53;;;3.00;;
56075;SDS011;41951;49.022;12.066;2023-05-10T00:50:05;4.90;;;2.90;;
56075;SDS011;41951;49.022;12.066;2023-05-10T00:52:32;5.30;;;3.38;;
56075;SDS011;41951;49.022;12.066;2023-05-10T00:54:58;4.97;;;3.03;;
56075;SDS011;41951;49.022;12.066;2023-05-10T00:57:23;5.82;;;3.20;;
56075;SDS011;41951;49.022;12.066;2023-05-10T00:59:49;4.43;;;3.13;;
56075;SDS011;41951;49.022;12.066;2023-05-10T01:02:16;5.50;;;3.35;;
56075;SDS011;41951;49.022;12.066;2023-05-10T01:04:42;5.93;;;3.50;;
56075;SDS011;41951;49.022;12.066;2023-05-10T01:07:08;5.00;;;3.28;;
56075;SDS011;41951;49.022;12.066;2023-05-10T01:09:33;7.15;;;3.13;;
56075;SDS011;41951;49.022;12.066;2023-05-10T01:11:59;7.07;;;3.50;;
56075;SDS011;41951;49.022;12.066;2023-05-10T01:14:26;5.72;;;3.50;;
56075;SDS011;41951;49.022;12.066;2023-05-10T01:16:52;5.78;;;3.15;;
56075;SDS011;41951;49.022;12.066;2023-05-10T01:19:19;5.22;;;3.30;;
56075;SDS011;41951;49.022;12.066;2023-05-10T01:24:38;5.05;;;3.40;;
56075;SDS011;41951;49.022;12.066;2023-05-10T01:32:57;5.55;;;3.08;;
56075;SDS011;41951;49.022;12.066;2023-05-10T01:35:53;7.18;;;3.20;;
56075;SDS011;41951;49.022;12.066;2023-05-10T01:38:27;5.15;;;3.33;;
56075;SDS011;41951;49.022;12.066;2023-05-10T01:43:28;4.35;;;3.10;;
56075;SDS011;41951;49.022;12.066;2023-05-10T01:46:03;4.80;;;3.40;;
56075;SDS011;41951;49.022;12.066;2023-05-10T01:48:40;5.22;;;3.03;;
56075;SDS011;41951;49.022;12.066;2023-05-10T01:51:12;9.88;;;3.28;;
56075;SDS011;41951;49.022;12.066;2023-05-10T01:53:41;7.20;;;3.67;;
56075;SDS011;41951;49.022;12.066;2023-05-10T01:56:08;6.75;;;3.42;;
56075;SDS011;41951;49.022;12.066;2023-05-10T01:58:36;5.47;;;3.70;;
56075;SDS011;41951;49.022;12.066;2023-05-10T02:01:04;4.72;;;2.85;;
56075;SDS011;41951;49.022;12.066;2023-05-10T02:03:32;5.80;;;3.83;;
56075;SDS011;41951;49.022;12.066;2023-05-10T02:06:00;4.93;;;3.25;;
56075;SDS011;41951;49.022;12.066;2023-05-10T02:08:28;6.00;;;3.83;;
56075;SDS011;41951;49.022;12.066;2023-05-10T02:10:55;4.68;;;3.38;;
56075;SDS011;41951;49.022;12.066;2023-05-10T02:13:23;5.45;;;3.20;;
56075;SDS011;41951;49.022;12.066;2023-05-10T02:15:51;5.38;;;3.40;;
56075;SDS011;41951;49.022;12.066;2023-05-10T02:18:17;4.93;;;3.47;;
56075;SDS011;41951;49.022;12.066;2023-05-10T02:20:44;7.32;;;3.45;;
56075;SDS011;41951;49.022;12.066;2023-05-10T02:23:11;5.05;;;3.45;;
56075;SDS011;41951;49.022;12.066;2023-05-10T02:25:38;6.72;;;4.13;;
56075;SDS011;41951;49.022;12.066;2023-05-10T02:28:04;6.25;;;4.22;;
56075;SDS011;41951;49.022;12.066;2023-05-10T02:30:32;5.43;;;4.00;;
56075;SDS011;41951;49.022;12.066;2023-05-10T02:32:59;6.57;;;3.78;;
56075;SDS011;41951;49.022;12.066;2023-05-10T02:35:27;7.30;;;3.72;;
56075;SDS011;41951;49.022;12.066;2023-05-10T02:37:53;4.78;;;3.67;;
56075;SDS011;41951;49.022;12.066;2023-05-10T02:40:19;6.25;;;3.70;;
56075;SDS011;41951;49.022;12.066;2023-05-10T02:42:47;5.15;;;3.38;;
56075;SDS011;41951;49.022;12.066;2023-05-10T02:45:21;6.68;;;4.00;;
56075;SDS011;41951;49.022;12.066;2023-05-10T02:47:51;10.13;;;3.90;;
56075;SDS011;41951;49.022;12.066;2023-05-10T02:50:17;6.72;;;4.10;;
56075;SDS011;41951;49.022;12.066;2023-05-10T02:52:47;5.57;;;3.78;;
56075;SDS011;41951;49.022;12.066;2023-05-10T02:55:16;7.10;;;3.97;;
56075;SDS011;41951;49.022;12.066;2023-05-10T02:57:48;7.40;;;4.25;;
56075;SDS011;41951;49.022;12.066;2023-05-10T03:00:16;7.78;;;4.35;;
56075;SDS011;41951;49.022;12.066;2023-05-10T03:02:42;7.15;;;4.43;;
56075;SDS011;41951;49.022;12.066;2023-05-10T03:05:07;6.30;;;3.67;;
56075;SDS011;41951;49.022;12.066;2023-05-10T03:07:33;7.78;;;5.18;;
56075;SDS011;41951;49.022;12.066;2023-05-10T03:09:59;9.10;;;4.55;;
56075;SDS011;41951;49.022;12.066;2023-05-10T03:12:33;8.00;;;5.22;;
56075;SDS011;41951;49.022;12.066;2023-05-10T03:15:11;7.03;;;4.63;;
56075;SDS011;41951;49.022;12.066;2023-05-10T03:20:09;8.93;;;5.60;;
56075;SDS011;41951;49.022;12.066;2023-05-10T03:22:40;7.90;;;4.72;;
56075;SDS011;41951;49.022;12.066;2023-05-10T03:25:12;7.13;;;4.80;;
56075;SDS011;41951;49.022;12.066;2023-05-10T03:27:40;9.05;;;5.07;;
56075;SDS011;41951;49.022;12.066;2023-05-10T03:30:08;7.53;;;5.13;;
56075;SDS011;41951;49.022;12.066;2023-05-10T03:32:37;7.72;;;5.05;;
56075;SDS011;41951;49.022;12.066;2023-05-10T03:35:10;8.80;;;5.25;;
56075;SDS011;41951;49.022;12.066;2023-05-10T03:37:37;9.75;;;6.35;;
56075;SDS011;41951;49.022;12.066;2023-05-10T03:40:03;7.68;;;5.32;;
56075;SDS011;41951;49.022;12.066;2023-05-10T03:42:29;8.35;;;5.80;;
56075;SDS011;41951;49.022;12.066;2023-05-10T03:44:55;9.80;;;5.88;;
56075;SDS011;41951;49.022;12.066;2023-05-10T03:47:20;8.55;;;6.03;;
56075;SDS011;41951;49.022;12.066;2023-05-10T03:49:46;7.85;;;5.78;;
56075;SDS011;41951;49.022;12.066;2023-05-10T03:52:11;8.32;;;5.88;;
56075;SDS011;41951;49.022;12.066;2023-05-10T03:54:37;11.00;;;6.25;;
56075;SDS011;41951;49.022;12.066;2023-05-10T03:57:03;11.82;;;6.25;;
56075;SDS011;41951;49.022;12.066;2023-05-10T03:59:29;8.18;;;5.80;;
56075;SDS011;41951;49.022;12.066;2023-05-10T04:01:54;10.57;;;7.90;;
56075;SDS011;41951;49.022;12.066;2023-05-10T04:04:20;17.50;;;10.77;;
56075;SDS011;41951;49.022;12.066;2023-05-10T04:06:46;10.50;;;7.40;;
56075;SDS011;41951;49.022;12.066;2023-05-10T04:09:12;8.88;;;6.43;;
56075;SDS011;41951;49.022;12.066;2023-05-10T04:11:38;12.18;;;6.88;;
56075;SDS011;41951;49.022;12.066;2023-05-10T04:14:04;9.02;;;6.78;;
56075;SDS011;41951;49.022;12.066;2023-05-10T04:16:29;11.10;;;6.00;;
56075;SDS011;41951;49.022;12.066;2023-05-10T04:18:55;10.13;;;6.43;;
56075;SDS011;41951;49.022;12.066;2023-05-10T04:21:21;8.48;;;6.28;;
56075;SDS011;41951;49.022;12.066;2023-05-10T04:23:46;9.35;;;6.00;;
56075;SDS011;41951;49.022;12.066;2023-05-10T04:26:12;8.30;;;6.28;;
56075;SDS011;41951;49.022;12.066;2023-05-10T04:28:38;10.07;;;6.25;;
56075;SDS011;41951;49.022;12.066;2023-05-10T04:31:04;10.68;;;6.55;;
56075;SDS011;41951;49.022;12.066;2023-05-10T04:33:32;7.82;;;6.07;;
56075;SDS011;41951;49.022;12.066;2023-05-10T04:35:57;9.15;;;6.10;;
56075;SDS011;41951;49.022;12.066;2023-05-10T04:38:23;8.93;;;5.93;;
56075;SDS011;41951;49.022;12.066;2023-05-10T04:40:49;9.38;;;6.22;;
56075;SDS011;41951;49.022;12.066;2023-05-10T04:43:15;10.82;;;6.63;;
56075;SDS011;41951;49.022;12.066;2023-05-10T04:45:41;9.98;;;6.93;;
56075;SDS011;41951;49.022;12.066;2023-05-10T04:48:06;8.43;;;6.13;;
56075;SDS011;41951;49.022;12.066;2023-05-10T04:50:32;9.32;;;6.53;;
56075;SDS011;41951;49.022;12.066;2023-05-10T04:52:58;13.45;;;7.53;;
56075;SDS011;41951;49.022;12.066;2023-05-10T04:55:23;11.05;;;6.72;;
56075;SDS011;41951;49.022;12.066;2023-05-10T04:57:49;10.95;;;6.90;;
56075;SDS011;41951;49.022;12.066;2023-05-10T05:00:20;10.55;;;7.47;;
56075;SDS011;41951;49.022;12.066;2023-05-10T05:02:46;9.00;;;7.07;;
56075;SDS011;41951;49.022;12.066;2023-05-10T05:05:11;10.13;;;7.40;;
56075;SDS011;41951;49.022;12.066;2023-05-10T05:07:40;11.25;;;6.88;;
56075;SDS011;41951;49.022;12.066;2023-05-10T05:10:06;13.43;;;7.55;;
56075;SDS011;41951;49.022;12.066;2023-05-10T05:12:34;13.75;;;7.10;;
56075;SDS011;41951;49.022;12.066;2023-05-10T05:15:00;12.48;;;7.50;;
56075;SDS011;41951;49.022;12.066;2023-05-10T05:17:26;11.88;;;7.13;;
56075;SDS011;41951;49.022;12.066;2023-05-10T05:19:52;10.65;;;7.03;;
56075;SDS011;41951;49.022;12.066;2023-05-10T05:22:17;12.77;;;7.20;;
56075;SDS011;41951;49.022;12.066;2023-05-10T05:24:44;11.13;;;6.70;;
56075;SDS011;41951;49.022;12.066;2023-05-10T05:27:10;13.82;;;7.50;;
56075;SDS011;41951;49.022;12.066;2023-05-10T05:29:35;11.00;;;7.55;;
56075;SDS011;41951;49.022;12.066;2023-05-10T05:32:01;11.77;;;7.93;;
56075;SDS011;41951;49.022;12.066;2023-05-10T05:34:26;11.13;;;6.85;;
56075;SDS011;41951;49.022;12.066;2023-05-10T05:36:52;10.18;;;7.30;;
56075;SDS011;41951;49.022;12.066;2023-05-10T05:39:17;11.38;;;7.72;;
56075;SDS011;41951;49.022;12.066;2023-05-10T05:41:43;11.50;;;7.93;;
56075;SDS011;41951;49.022;12.066;2023-05-10T05:44:09;12.32;;;7.80;;
56075;SDS011;41951;49.022;12.066;2023-05-10T05:46:34;14.30;;;7.82;;
56075;SDS011;41951;49.022;12.066;2023-05-10T05:49:00;12.13;;;7.75;;
56075;SDS011;41951;49.022;12.066;2023-05-10T05:51:26;12.02;;;7.65;;
56075;SDS011;41951;49.022;12.066;2023-05-10T05:53:51;13.00;;;8.40;;
56075;SDS011;41951;49.022;12.066;2023-05-10T05:56:17;12.30;;;7.32;;
56075;SDS011;41951;49.022;12.066;2023-05-10T05:58:49;11.57;;;7.82;;
56075;SDS011;41951;49.022;12.066;2023-05-10T06:01:17;11.38;;;7.50;;
56075;SDS011;41951;49.022;12.066;2023-05-10T06:03:43;12.23;;;7.47;;
56075;SDS011;41951;49.022;12.066;2023-05-10T06:06:08;10.68;;;7.60;;
56075;SDS011;41951;49.022;12.066;2023-05-10T06:08:34;10.30;;;7.85;;
56075;SDS011;41951;49.022;12.066;2023-05-10T06:11:00;12.30;;;7.85;;
56075;SDS011;41951;49.022;12.066;2023-05-10T06:13:26;14.00;;;8.50;;
56075;SDS011;41951;49.022;12.066;2023-05-10T06:15:57;12.75;;;8.77;;
56075;SDS011;41951;49.022;12.066;2023-05-10T06:18:23;14.30;;;8.45;;
56075;SDS011;41951;49.022;12.066;2023-05-10T06:20:49;14.60;;;7.93;;
56075;SDS011;41951;49.022;12.066;2023-05-10T06:23:15;14.55;;;8.55;;
56075;SDS011;41951;49.022;12.066;2023-05-10T06:25:40;12.68;;;8.20;;
56075;SDS011;41951;49.022;12.066;2023-05-10T06:28:06;13.80;;;8.73;;
56075;SDS011;41951;49.022;12.066;2023-05-10T06:30:32;13.43;;;8.75;;
56075;SDS011;41951;49.022;12.066;2023-05-10T06:32:57;11.82;;;8.82;;
56075;SDS011;41951;49.022;12.066;2023-05-10T06:35:23;13.02;;;8.82;;
56075;SDS011;41951;49.022;12.066;2023-05-10T06:37:49;12.35;;;7.90;;
56075;SDS011;41951;49.022;12.066;2023-05-10T06:40:15;11.48;;;8.07;;
56075;SDS011;41951;49.022;12.066;2023-05-10T06:42:41;12.63;;;8.73;;
56075;SDS011;41951;49.022;12.066;2023-05-10T06:45:06;14.52;;;9.30;;
56075;SDS011;41951;49.022;12.066;2023-05-10T06:47:33;14.18;;;8.70;;
56075;SDS011;41951;49.022;12.066;2023-05-10T06:49:59;12.88;;;8.63;;
56075;SDS011;41951;49.022;12.066;2023-05-10T06:52:24;13.82;;;8.77;;
56075;SDS011;41951;49.022;12.066;2023-05-10T06:54:50;11.65;;;8.90;;
56075;SDS011;41951;49.022;12.066;2023-05-10T06:57:15;12.90;;;8.82;;
56075;SDS011;41951;49.022;12.066;2023-05-10T06:59:42;15.25;;;9.30;;
56075;SDS011;41951;49.022;12.066;2023-05-10T07:02:08;12.45;;;9.05;;
56075;SDS011;41951;49.022;12.066;2023-05-10T07:04:34;13.63;;;9.77;;
56075;SDS011;41951;49.022;12.066;2023-05-10T07:06:59;13.57;;;8.45;;
56075;SDS011;41951;49.022;12.066;2023-05-10T07:09:25;13.60;;;9.85;;
56075;SDS011;41951;49.022;12.066;2023-05-10T07:11:50;14.20;;;9.50;;
56075;SDS011;41951;49.022;12.066;2023-05-10T07:14:16;13.85;;;9.15;;
56075;SDS011;41951;49.022;12.066;2023-05-10T07:16:41;13.55;;;9.23;;
56075;SDS011;41951;49.022;12.066;2023-05-10T07:19:07;13.80;;;9.48;;
56075;SDS011;41951;49.022;12.066;2023-05-10T07:21:32;14.00;;;9.95;;
56075;SDS011;41951;49.022;12.066;2023-05-10T07:23:59;14.55;;;8.98;;
56075;SDS011;41951;49.022;12.066;2023-05-10T07:26:25;17.30;;;9.95;;
56075;SDS011;41951;49.022;12.066;2023-05-10T07:28:51;14.90;;;9.68;;
56075;SDS011;41951;49.022;12.066;2023-05-10T07:31:17;14.32;;;8.95;;
56075;SDS011;41951;49.022;12.066;2023-05-10T07:33:42;11.63;;;8.45;;
56075;SDS011;41951;49.022;12.066;2023-05-10T07:36:08;13.80;;;9.48;;
56075;SDS011;41951;49.022;12.066;2023-05-10T07:38:33;12.57;;;8.65;;
56075;SDS011;41951;49.022;12.066;2023-05-10T07:40:59;14.02;;;9.75;;
56075;SDS011;41951;49.022;12.066;2023-05-10T07:43:24;12.82;;;9.65;;
56075;SDS011;41951;49.022;12.066;2023-05-10T07:45:50;11.02;;;8.57;;
56075;SDS011;41951;49.022;12.066;2023-05-10T07:48:16;13.20;;;8.77;;
56075;SDS011;41951;49.022;12.066;2023-05-10T07:50:41;10.40;;;8.40;;
56075;SDS011;41951;49.022;12.066;2023-05-10T07:53:07;10.88;;;8.40;;
56075;SDS011;41951;49.022;12.066;2023-05-10T07:55:33;11.35;;;8.70;;
56075;SDS011;41951;49.022;12.066;2023-05-10T07:57:59;12.70;;;7.85;;
56075;SDS011;41951;49.022;12.066;2023-05-10T08:00:26;11.77;;;8.70;;
56075;SDS011;41951;49.022;12.066;2023-05-10T08:02:51;12.98;;;8.48;;
56075;SDS011;41951;49.022;12.066;2023-05-10T08:05:17;13.00;;;8.98;;
56075;SDS011;41951;49.022;12.066;2023-05-10T08:07:43;10.40;;;7.30;;
56075;SDS011;41951;49.022;12.066;2023-05-10T08:10:10;11.23;;;8.70;;
56075;SDS011;41951;49.022;12.066;2023-05-10T08:12:36;14.38;;;8.27;;
56075;SDS011;41951;49.022;12.066;2023-05-10T08:15:02;10.50;;;8.10;;
56075;SDS011;41951;49.022;12.066;2023-05-10T08:17:28;9.30;;;7.13;;
56075;SDS011;41951;49.022;12.066;2023-05-10T08:19:54;10.60;;;7.90;;
56075;SDS011;41951;49.022;12.066;2023-05-10T08:22:20;10.50;;;7.93;;
56075;SDS011;41951;49.022;12.066;2023-05-10T08:24:45;9.43;;;7.57;;
56075;SDS011;41951;49.022;12.066;2023-05-10T08:27:11;12.10;;;8.00;;
56075;SDS011;41951;49.022;12.066;2023-05-10T08:29:37;14.93;;;8.70;;
56075;SDS011;41951;49.022;12.066;2023-05-10T08:32:02;11.48;;;7.63;;
56075;SDS011;41951;49.022;12.066;2023-05-10T08:34:28;7.72;;;5.60;;
56075;SDS011;41951;49.022;12.066;2023-05-10T08:36:55;7.20;;;4.50;;
56075;SDS011;41951;49.022;12.066;2023-05-10T08:39:21;6.43;;;4.20;;
56075;SDS011;41951;49.022;12.066;2023-05-10T08:41:48;7.28;;;4.50;;
56075;SDS011;41951;49.022;12.066;2023-05-10T08:44:18;6.40;;;3.80;;
56075;SDS011;41951;49.022;12.066;2023-05-10T08:46:45;5.50;;;1.90;;
56075;SDS011;41951;49.022;12.066;2023-05-10T08:49:16;3.75;;;1.52;;
56075;SDS011;41951;49.022;12.066;2023-05-10T08:54:14;3.38;;;2.10;;
56075;SDS011;41951;49.022;12.066;2023-05-10T08:56:40;3.70;;;2.08;;
56075;SDS011;41951;49.022;12.066;2023-05-10T08:59:06;5.32;;;1.80;;
56075;SDS011;41951;49.022;12.066;2023-05-10T09:01:32;2.00;;;1.40;;
56075;SDS011;41951;49.022;12.066;2023-05-10T09:04:00;2.88;;;1.50;;
56075;SDS011;41951;49.022;12.066;2023-05-10T09:06:26;3.63;;;1.00;;
56075;SDS011;41951;49.022;12.066;2023-05-10T09:08:52;1.65;;;0.90;;
56075;SDS011;41951;49.022;12.066;2023-05-10T09:11:17;1.60;;;1.00;;
56075;SDS011;41951;49.022;12.066;2023-05-10T09:13:45;2.38;;;0.90;;
56075;SDS011;41951;49.022;12.066;2023-05-10T09:16:13;2.38;;;1.10;;
56075;SDS011;41951;49.022;12.066;2023-05-10T09:18:38;2.03;;;1.10;;
56075;SDS011;41951;49.022;12.066;2023-05-10T09:21:04;1.40;;;1.00;;
56075;SDS011;41951;49.022;12.066;2023-05-10T09:23:30;3.75;;;1.05;;
56075;SDS011;41951;49.022;12.066;2023-05-10T09:26:06;2.28;;;1.00;;
56075;SDS011;41951;49.022;12.066;2023-05-10T09:28:49;1.83;;;0.90;;
56075;SDS011;41951;49.022;12.066;2023-05-10T09:31:43;2.45;;;1.10;;
56075;SDS011;41951;49.022;12.066;2023-05-10T09:34:11;3.03;;;1.40;;
56075;SDS011;41951;49.022;12.066;2023-05-10T09:36:54;2.10;;;1.40;;
56075;SDS011;41951;49.022;12.066;2023-05-10T09:39:29;3.05;;;0.77;;
56075;SDS011;41951;49.022;12.066;2023-05-10T09:41:59;1.60;;;1.00;;
56075;SDS011;41951;49.022;12.066;2023-05-10T09:44:28;1.98;;;1.00;;
56075;SDS011;41951;49.022;12.066;2023-05-10T09:46:54;1.52;;;1.02;;
56075;SDS011;41951;49.022;12.066;2023-05-10T09:49:22;2.35;;;1.08;;
56075;SDS011;41951;49.022;12.066;2023-05-10T09:51:59;4.22;;;1.15;;
56075;SDS011;41951;49.022;12.066;2023-05-10T09:54:25;1.52;;;1.10;;
56075;SDS011;41951;49.022;12.066;2023-05-10T09:56:51;2.45;;;0.95;;
56075;SDS011;41951;49.022;12.066;2023-05-10T09:59:16;1.73;;;1.10;;
56075;SDS011;41951;49.022;12.066;2023-05-10T10:01:43;2.22;;;0.90;;
56075;SDS011;41951;49.022;12.066;2023-05-10T10:04:15;1.45;;;1.00;;
56075;SDS011;41951;49.022;12.066;2023-05-10T10:06:41;1.27;;;0.88;;
56075;SDS011;41951;49.022;12.066;2023-05-10T10:09:07;1.33;;;1.00;;
56075;SDS011;41951;49.022;12.066;2023-05-10T10:11:37;3.28;;;1.10;;
56075;SDS011;41951;49.022;12.066;2023-05-10T10:14:03;2.38;;;1.00;;
56075;SDS011;41951;49.022;12.066;2023-05-10T10:16:30;1.25;;;0.90;;
56075;SDS011;41951;49.022;12.066;2023-05-10T10:18:56;2.63;;;1.40;;
56075;SDS011;41951;49.022;12.066;2023-05-10T10:21:22;4.40;;;1.83;;
56075;SDS011;41951;49.022;12.066;2023-05-10T10:23:48;2.00;;;1.10;;
56075;SDS011;41951;49.022;12.066;2023-05-10T10:26:14;1.83;;;1.00;;
56075;SDS011;41951;49.022;12.066;2023-05-10T10:31:20;1.92;;;1.13;;
56075;SDS011;41951;49.022;12.066;2023-05-10T10:33:56;1.15;;;0.93;;
56075;SDS011;41951;49.022;12.066;2023-05-10T10:36:26;2.50;;;1.02;;
56075;SDS011;41951;49.022;12.066;2023-05-10T10:38:56;2.95;;;0.90;;
56075;SDS011;41951;49.022;12.066;2023-05-10T10:41:35;2.50;;;1.00;;
56075;SDS011;41951;49.022;12.066;2023-05-10T10:57:58;1.08;;;0.80;;
56075;SDS011;41951;49.022;12.066;2023-05-10T11:00:35;1.60;;;0.90;;
56075;SDS011;41951;49.022;12.066;2023-05-10T11:03:03;1.35;;;0.90;;
56075;SDS011;41951;49.022;12.066;2023-05-10T11:05:37;1.80;;;0.80;;
56075;SDS011;41951;49.022;12.066;2023-05-10T11:08:07;1.38;;;0.82;;
56075;SDS011;41951;49.022;12.066;2023-05-10T11:10:48;0.95;;;0.60;;
56075;SDS011;41951;49.022;12.066;2023-05-10T11:13:17;1.08;;;0.90;;
56075;SDS011;41951;49.022;12.066;2023-05-10T11:15:55;2.67;;;1.23;;
56075;SDS011;41951;49.022;12.066;2023-05-10T11:18:25;2.03;;;1.00;;
56075;SDS011;41951;49.022;12.066;2023-05-10T11:20:52;2.00;;;0.90;;
56075;SDS011;41951;49.022;12.066;2023-05-10T11:23:23;1.83;;;0.80;;
56075;SDS011;41951;49.022;12.066;2023-05-10T11:25:54;0.85;;;0.82;;
56075;SDS011;41951;49.022;12.066;2023-05-10T11:28:20;1.33;;;0.90;;
56075;SDS011;41951;49.022;12.066;2023-05-10T11:30:45;1.35;;;0.93;;
56075;SDS011;41951;49.022;12.066;2023-05-10T11:33:15;1.95;;;0.90;;
56075;SDS011;41951;49.022;12.066;2023-05-10T11:38:08;2.60;;;0.80;;
56075;SDS011;41951;49.022;12.066;2023-05-10T11:40:35;3.55;;;1.00;;
56075;SDS011;41951;49.022;12.066;2023-05-10T11:43:01;2.75;;;0.90;;
56075;SDS011;41951;49.022;12.066;2023-05-10T11:45:28;1.20;;;0.80;;
56075;SDS011;41951;49.022;12.066;2023-05-10T11:47:55;0.70;;;0.70;;
56075;SDS011;41951;49.022;12.066;2023-05-10T11:50:21;1.40;;;0.77;;
56075;SDS011;41951;49.022;12.066;2023-05-10T11:52:54;1.20;;;0.60;;
56075;SDS011;41951;49.022;12.066;2023-05-10T11:55:21;0.70;;;0.70;;
56075;SDS011;41951;49.022;12.066;2023-05-10T11:57:51;2.40;;;0.85;;
56075;SDS011;41951;49.022;12.066;2023-05-10T12:00:18;0.93;;;0.80;;
56075;SDS011;41951;49.022;12.066;2023-05-10T12:02:43;1.48;;;0.70;;
56075;SDS011;41951;49.022;12.066;2023-05-10T12:05:09;1.10;;;0.80;;
56075;SDS011;41951;49.022;12.066;2023-05-10T12:07:35;2.33;;;1.00;;
56075;SDS011;41951;49.022;12.066;2023-05-10T12:10:13;1.75;;;1.08;;
56075;SDS011;41951;49.022;12.066;2023-05-10T12:12:43;2.38;;;0.80;;
56075;SDS011;41951;49.022;12.066;2023-05-10T12:15:10;1.05;;;0.80;;
56075;SDS011;41951;49.022;12.066;2023-05-10T12:17:37;2.60;;;1.00;;
56075;SDS011;41951;49.022;12.066;2023-05-10T12:22:53;2.05;;;0.85;;
56075;SDS011;41951;49.022;12.066;2023-05-10T12:25:20;2.08;;;0.75;;
56075;SDS011;41951;49.022;12.066;2023-05-10T12:30:29;1.63;;;1.00;;
56075;SDS011;41951;49.022;12.066;2023-05-10T12:33:08;0.98;;;0.80;;
56075;SDS011;41951;49.022;12.066;2023-05-10T12:35:44;1.52;;;0.70;;
56075;SDS011;41951;49.022;12.066;2023-05-10T12:40:59;1.77;;;1.15;;
56075;SDS011;41951;49.022;12.066;2023-05-10T12:43:26;1.52;;;1.00;;
56075;SDS011;41951;49.022;12.066;2023-05-10T12:45:52;1.45;;;0.90;;
56075;SDS011;41951;49.022;12.066;2023-05-10T12:48:18;1.75;;;0.80;;
56075;SDS011;41951;49.022;12.066;2023-05-10T12:50:43;3.03;;;0.90;;
56075;SDS011;41951;49.022;12.066;2023-05-10T12:53:09;2.33;;;0.73;;
56075;SDS011;41951;49.022;12.066;2023-05-10T12:55:35;2.38;;;0.88;;
56075;SDS011;41951;49.022;12.066;2023-05-10T12:58:00;1.65;;;0.80;;
56075;SDS011;41951;49.022;12.066;2023-05-10T13:00:26;2.45;;;0.80;;
56075;SDS011;41951;49.022;12.066;2023-05-10T13:02:51;1.23;;;0.90;;
56075;SDS011;41951;49.022;12.066;2023-05-10T13:05:18;3.08;;;0.90;;
56075;SDS011;41951;49.022;12.066;2023-05-10T13:07:43;1.95;;;0.80;;
56075;SDS011;41951;49.022;12.066;2023-05-10T13:10:09;2.08;;;0.90;;
56075;SDS011;41951;49.022;12.066;2023-05-10T13:12:35;1.98;;;1.00;;
56075;SDS011;41951;49.022;12.066;2023-05-10T13:15:01;2.38;;;1.10;;
56075;SDS011;41951;49.022;12.066;2023-05-10T13:17:27;2.28;;;1.10;;
56075;SDS011;41951;49.022;12.066;2023-05-10T13:19:54;3.92;;;1.00;;
56075;SDS011;41951;49.022;12.066;2023-05-10T13:22:20;4.47;;;1.27;;
56075;SDS011;41951;49.022;12.066;2023-05-10T13:24:45;1.63;;;1.00;;
56075;SDS011;41951;49.022;12.066;2023-05-10T13:27:11;2.50;;;1.30;;
56075;SDS011;41951;49.022;12.066;2023-05-10T13:29:36;1.88;;;1.20;;
56075;SDS011;41951;49.022;12.066;2023-05-10T13:32:02;2.80;;;1.40;;
56075;SDS011;41951;49.022;12.066;2023-05-10T13:34:28;2.08;;;1.17;;
56075;SDS011;41951;49.022;12.066;2023-05-10T13:36:53;1.50;;;1.00;;
56075;SDS011;41951;49.022;12.066;2023-05-10T13:39:20;2.47;;;1.00;;
56075;SDS011;41951;49.022;12.066;2023-05-10T13:41:46;2.42;;;1.33;;
56075;SDS011;41951;49.022;12.066;2023-05-10T13:44:12;1.77;;;0.93;;
56075;SDS011;41951;49.022;12.066;2023-05-10T13:46:39;3.17;;;1.60;;
56075;SDS011;41951;49.022;12.066;2023-05-10T13:49:08;3.53;;;1.60;;
56075;SDS011;41951;49.022;12.066;2023-05-10T13:51:34;4.43;;;1.38;;
56075;SDS011;41951;49.022;12.066;2023-05-10T13:54:01;4.03;;;1.40;;
56075;SDS011;41951;49.022;12.066;2023-05-10T13:56:27;4.10;;;1.70;;
56075;SDS011;41951;49.022;12.066;2023-05-10T13:58:53;4.20;;;1.55;;
56075;SDS011;41951;49.022;12.066;2023-05-10T14:01:18;4.78;;;1.75;;
56075;SDS011;41951;49.022;12.066;2023-05-10T14:03:44;2.58;;;1.40;;
56075;SDS011;41951;49.022;12.066;2023-05-10T14:06:09;5.45;;;1.75;;
56075;SDS011;41951;49.022;12.066;2023-05-10T14:08:35;4.22;;;1.70;;
56075;SDS011;41951;49.022;12.066;2023-05-10T14:11:01;5.40;;;1.58;;
56075;SDS011;41951;49.022;12.066;2023-05-10T14:13:27;4.72;;;1.40;;
56075;SDS011;41951;49.022;12.066;2023-05-10T14:15:53;3.38;;;1.70;;
56075;SDS011;41951;49.022;12.066;2023-05-10T14:18:19;3.03;;;1.40;;
56075;SDS011;41951;49.022;12.066;2023-05-10T14:20:45;3.58;;;1.55;;
56075;SDS011;41951;49.022;12.066;2023-05-10T14:23:11;2.20;;;1.40;;
56075;SDS011;41951;49.022;12.066;2023-05-10T14:25:38;3.05;;;1.42;;
56075;SDS011;41951;49.022;12.066;2023-05-10T14:28:06;2.03;;;1.25;;
56075;SDS011;41951;49.022;12.066;2023-05-10T14:30:32;5.78;;;1.60;;
56075;SDS011;41951;49.022;12.066;2023-05-10T14:32:59;3.75;;;1.55;;
56075;SDS011;41951;49.022;12.066;2023-05-10T14:35:26;3.60;;;1.90;;
56075;SDS011;41951;49.022;12.066;2023-05-10T14:37:52;4.78;;;2.20;;
56075;SDS011;41951;49.022;12.066;2023-05-10T14:40:18;3.20;;;1.70;;
56075;SDS011;41951;49.022;12.066;2023-05-10T14:42:43;3.58;;;1.60;;
56075;SDS011;41951;49.022;12.066;2023-05-10T14:45:09;3.95;;;1.63;;
56075;SDS011;41951;49.022;12.066;2023-05-10T14:47:35;5.60;;;1.60;;
56075;SDS011;41951;49.022;12.066;2023-05-10T14:50:01;7.65;;;1.80;;
56075;SDS011;41951;49.022;12.066;2023-05-10T14:52:27;2.30;;;1.40;;
56075;SDS011;41951;49.022;12.066;2023-05-10T14:54:52;3.30;;;1.80;;
56075;SDS011;41951;49.022;12.066;2023-05-10T14:57:18;2.97;;;1.50;;
56075;SDS011;41951;49.022;12.066;2023-05-10T14:59:44;3.65;;;1.60;;
56075;SDS011;41951;49.022;12.066;2023-05-10T15:02:09;5.18;;;1.60;;
56075;SDS011;41951;49.022;12.066;2023-05-10T15:04:35;5.80;;;1.92;;
56075;SDS011;41951;49.022;12.066;2023-05-10T15:07:00;2.17;;;1.40;;
56075;SDS011;41951;49.022;12.066;2023-05-10T15:09:26;6.43;;;1.98;;
56075;SDS011;41951;49.022;12.066;2023-05-10T15:11:55;3.22;;;1.73;;
56075;SDS011;41951;49.022;12.066;2023-05-10T15:14:20;5.10;;;2.10;;